Time;durP1;ratioP1;P1;durP2;ratioP2;P2;SDS_P1;SDS_P2;PMS_P1;PMS_P2;Temp;Humidity;BMP_temperature;BMP_pressure;BME280_temperature;BME280_humidity;BME280_pressure;Samples;Min_cycle;Max_cycle;Signal;HPM_P1;HPM_P2
2024/01/09 00:03:23;;;;;;;10.05;9.23;;;;;;;-5.57;100.00;103905.69;10030776;29;20100;-68
2024/01/09 00:08:19;;;;;;;9.45;8.55;;;;;;;-5.54;100.00;103905.44;10029814;29;20439;-69
2024/01/09 00:13:16;;;;;;;10.48;9.48;;;;;;;-5.62;100.00;103914.06;10032508;29;20459;-67
2024/01/09 00:18:12;;;;;;;10.23;9.38;;;;;;;-5.58;100.00;103901.34;10032718;29;20043;-67
2024/01/09 00:23:09;;;;;;;10.30;9.50;;;;;;;-5.58;100.00;103898.66;10035429;29;20043;-68
2024/01/09 00:28:06;;;;;;;9.75;8.98;;;;;;;-5.66;100.00;103906.47;10037381;29;20158;-68
2024/01/09 00:33:03;;;;;;;10.23;9.25;;;;;;;-5.65;100.00;103902.84;10023008;29;20067;-69
2024/01/09 00:37:59;;;;;;;10.63;9.73;;;;;;;-5.73;100.00;103896.34;10029407;29;20040;-69
2024/01/09 00:42:56;;;;;;;10.88;9.80;;;;;;;-5.73;100.00;103896.34;10039348;29;20056;-68
2024/01/09 00:47:52;;;;;;;12.60;9.57;;;;;;;-5.85;100.00;103894.72;10039423;29;20062;-68
2024/01/09 00:52:49;;;;;;;10.15;9.25;;;;;;;-5.84;100.00;103887.59;10024121;29;20554;-69
2024/01/09 00:57:46;;;;;;;12.65;9.40;;;;;;;-5.89;100.00;103890.63;10039815;29;20117;-69
2024/01/09 01:02:42;;;;;;;10.38;9.48;;;;;;;-5.93;100.00;103889.19;10019148;29;20059;-69
2024/01/09 01:07:39;;;;;;;10.98;9.77;;;;;;;-5.93;100.00;103889.19;10031272;29;20047;-70
2024/01/09 01:12:35;;;;;;;10.10;9.10;;;;;;;-5.90;100.00;103875.59;10028091;29;20047;-69
2024/01/09 01:17:32;;;;;;;10.95;10.00;;;;;;;-5.90;100.00;103878.28;10043968;28;20050;-69
2024/01/09 01:22:28;;;;;;;11.13;10.23;;;;;;;-5.90;100.00;103872.94;10046679;29;20068;-69
2024/01/09 01:27:25;;;;;;;10.90;10.00;;;;;;;-5.93;100.00;103878.53;10038620;29;20036;-69
2024/01/09 01:32:21;;;;;;;10.85;9.95;;;;;;;-5.94;100.00;103876.88;10032045;29;20051;-68
2024/01/09 01:37:18;;;;;;;10.27;9.38;;;;;;;-5.97;100.00;103871.81;10017679;29;20058;-69
2024/01/09 01:42:15;;;;;;;10.77;9.82;;;;;;;-6.00;100.00;103880.91;10045977;29;20063;-68
2024/01/09 01:47:11;;;;;;;12.68;9.43;;;;;;;-6.07;100.00;103884.25;10041788;28;20472;-68
2024/01/09 01:52:10;;;;;;;10.55;9.40;;;;;;;-6.10;100.00;103887.13;10043944;29;20534;-69
2024/01/09 01:57:08;;;;;;;10.90;9.98;;;;;;;-6.15;100.00;103874.19;10052276;28;20419;-69
2024/01/09 02:02:05;;;;;;;10.43;9.10;;;;;;;-6.10;100.00;103874.69;10037145;29;20058;-69
2024/01/09 02:07:01;;;;;;;11.32;9.80;;;;;;;-6.18;100.00;103880.63;10033544;29;20641;-69
2024/01/09 02:11:58;;;;;;;11.27;9.60;;;;;;;-6.18;100.00;103869.16;10039317;29;20044;-68
2024/01/09 02:16:55;;;;;;;11.35;10.18;;;;;;;-6.17;100.00;103865.53;10044859;28;20043;-68
2024/01/09 02:21:51;;;;;;;10.75;9.70;;;;;;;-6.17;100.00;103863.69;10048973;29;20071;-68
2024/01/09 02:27:00;;;;;;;10.50;9.50;;;;;;;-6.19;100.00;103862.16;10024920;28;20127;-68
2024/01/09 02:32:02;;;;;;;10.25;9.38;;;;;;;-6.25;100.00;103857.31;10017603;29;20056;-70
2024/01/09 02:36:59;;;;;;;10.65;9.85;;;;;;;-6.30;100.00;103860.38;10048089;29;20063;-71
2024/01/09 02:41:56;;;;;;;10.27;9.30;;;;;;;-6.33;100.00;103865.97;10054601;29;20047;-70
2024/01/09 02:46:53;;;;;;;10.60;9.65;;;;;;;-6.41;100.00;103871.06;10046068;29;20496;-67
2024/01/09 02:51:49;;;;;;;9.70;8.88;;;;;;;-6.46;100.00;103865.28;10033451;29;20423;-68
2024/01/09 02:56:46;;;;;;;10.38;9.57;;;;;;;-6.47;100.00;103869.78;10040873;29;20044;-68
2024/01/09 03:01:42;;;;;;;11.65;9.95;;;;;;;-6.53;100.00;103870.25;10042915;29;20518;-70
2024/01/09 03:06:39;;;;;;;12.50;10.10;;;;;;;-6.56;100.00;103876.69;10036524;29;20511;-69
2024/01/09 03:11:36;;;;;;;9.73;9.02;;;;;;;-6.54;100.00;103873.03;10032182;29;20052;-70
2024/01/09 03:16:32;;;;;;;11.32;9.85;;;;;;;-6.52;100.00;103871.09;10043953;29;20043;-69
2024/01/09 03:21:29;;;;;;;10.05;9.15;;;;;;;-6.60;100.00;103863.75;10038096;29;20043;-68
2024/01/09 03:26:25;;;;;;;10.63;9.40;;;;;;;-6.63;100.00;103858.69;10054545;29;20055;-68
2024/01/09 03:31:23;;;;;;;11.13;10.10;;;;;;;-6.60;100.00;103869.94;10031381;29;20059;-67
2024/01/09 03:36:20;;;;;;;10.30;9.30;;;;;;;-6.65;100.00;103872.13;10039986;28;20052;-68
2024/01/09 03:41:16;;;;;;;10.95;9.82;;;;;;;-6.69;100.00;103860.03;10041238;29;20051;-69
2024/01/09 03:46:13;;;;;;;11.07;10.07;;;;;;;-6.74;100.00;103864.91;10039668;29;20067;-68
2024/01/09 03:51:09;;;;;;;11.25;10.25;;;;;;;-6.73;100.00;103855.94;10031442;29;20051;-69
2024/01/09 03:56:06;;;;;;;11.05;9.98;;;;;;;-6.81;100.00;103850.41;10039288;29;20051;-68
2024/01/09 04:01:02;;;;;;;10.75;9.85;;;;;;;-6.84;100.00;103848.00;10035907;29;20051;-69
2024/01/09 04:06:01;;;;;;;11.40;10.30;;;;;;;-6.80;100.00;103846.75;10027230;29;20082;-70
2024/01/09 04:10:57;;;;;;;10.77;9.98;;;;;;;-6.83;100.00;103847.03;10041370;29;20444;-71
2024/01/09 04:15:54;;;;;;;11.35;10.23;;;;;;;-6.82;100.00;103851.38;10031361;29;20115;-69
2024/01/09 04:20:50;;;;;;;12.25;11.02;;;;;;;-6.82;100.00;103856.72;10032998;29;20055;-69
2024/01/09 04:25:47;;;;;;;11.25;10.45;;;;;;;-6.79;100.00;103848.47;10018895;29;20146;-70
2024/01/09 04:30:43;;;;;;;11.55;10.65;;;;;;;-6.77;100.00;103852.69;10033785;29;20047;-69
2024/01/09 04:35:40;;;;;;;11.05;10.15;;;;;;;-6.91;100.00;103844.16;10023221;29;20047;-72
2024/01/09 04:40:37;;;;;;;12.20;10.98;;;;;;;-7.01;100.00;103842.25;10036864;29;20040;-72
2024/01/09 04:45:33;;;;;;;11.63;10.63;;;;;;;-6.97;100.00;103849.97;10033354;29;20054;-73
2024/01/09 04:50:30;;;;;;;11.48;10.38;;;;;;;-7.02;100.00;103848.50;10018651;29;20052;-71
2024/01/09 04:55:26;;;;;;;12.80;11.63;;;;;;;-6.93;100.00;103851.41;10024812;29;20051;-70
2024/01/09 05:00:23;;;;;;;13.13;11.75;;;;;;;-7.00;100.00;103845.75;10014684;29;20143;-71
2024/01/09 05:05:19;;;;;;;16.33;11.45;;;;;;;-6.99;100.00;103848.25;10017328;29;20051;-71
2024/01/09 05:10:16;;;;;;;11.88;10.90;;;;;;;-7.05;100.00;103848.78;10023350;29;20056;-69
2024/01/09 05:15:13;;;;;;;12.35;11.25;;;;;;;-7.12;100.00;103844.91;10009851;29;20043;-71
2024/01/09 05:20:09;;;;;;;12.48;11.48;;;;;;;-7.13;100.00;103851.19;10019782;29;20460;-71
2024/01/09 05:25:09;;;;;;;12.80;11.80;;;;;;;-7.16;100.00;103845.28;10030892;29;20492;-70
2024/01/09 05:30:09;;;;;;;12.95;11.95;;;;;;;-7.18;100.00;103848.06;10017235;29;20052;-71
2024/01/09 05:35:07;;;;;;;13.65;12.55;;;;;;;-7.25;100.00;103845.03;10032093;29;20075;-69
2024/01/09 05:40:06;;;;;;;17.08;12.32;;;;;;;-7.23;100.00;103850.25;10033371;29;20039;-71
2024/01/09 05:45:03;;;;;;;13.55;12.23;;;;;;;-7.30;100.00;103843.72;10020748;29;21075;-71
2024/01/09 05:50:03;;;;;;;14.18;12.90;;;;;;;-7.23;100.00;103855.56;10019237;29;20142;-71
2024/01/09 05:54:59;;;;;;;14.18;12.93;;;;;;;-7.27;100.00;103859.44;10038175;28;20099;-69
2024/01/09 05:59:56;;;;;;;14.73;13.35;;;;;;;-7.23;100.00;103860.88;10030084;29;20052;-71
2024/01/09 06:04:52;;;;;;;15.32;13.75;;;;;;;-7.21;100.00;103864.28;10034097;29;20039;-69
2024/01/09 06:09:49;;;;;;;14.70;13.50;;;;;;;-7.17;100.00;103854.22;10045438;29;20661;-71
2024/01/09 06:14:45;;;;;;;15.38;13.82;;;;;;;-7.16;100.00;103859.41;10034232;29;20117;-71
2024/01/09 06:19:42;;;;;;;14.40;12.95;;;;;;;-7.24;100.00;103859.19;10039450;29;20099;-69
2024/01/09 06:24:38;;;;;;;15.43;14.02;;;;;;;-7.15;100.00;103854.94;10030924;29;20047;-71
2024/01/09 06:29:35;;;;;;;16.02;14.30;;;;;;;-7.16;100.00;103870.06;10042205;29;20056;-71
2024/01/09 06:34:34;;;;;;;16.27;14.65;;;;;;;-7.16;100.00;103870.06;10034509;29;20047;-70
2024/01/09 06:39:30;;;;;;;16.30;14.98;;;;;;;-7.14;100.00;103862.81;10033037;29;20050;-70
2024/01/09 06:44:27;;;;;;;17.33;15.13;;;;;;;-7.14;100.00;103860.16;10033317;29;20064;-70
2024/01/09 06:49:23;;;;;;;16.40;14.88;;;;;;;-7.29;100.00;103867.53;10048172;29;20061;-71
2024/01/09 06:54:20;;;;;;;23.92;15.07;;;;;;;-7.34;100.00;103868.88;10045181;29;20597;-70
2024/01/09 06:59:17;;;;;;;16.73;15.05;;;;;;;-7.21;100.00;103869.59;10038141;29;20040;-69
2024/01/09 07:04:14;;;;;;;16.55;15.13;;;;;;;-7.09;100.00;103873.09;10041464;29;20095;-70
2024/01/09 07:09:11;;;;;;;16.52;14.95;;;;;;;-7.09;100.00;103863.28;10036446;29;20053;-70
2024/01/09 07:14:09;;;;;;;15.82;14.32;;;;;;;-7.12;100.00;103878.66;10037556;28;20054;-71
2024/01/09 07:19:06;;;;;;;15.00;13.77;;;;;;;-7.09;100.00;103887.22;10040293;29;20043;-71
2024/01/09 07:24:03;;;;;;;16.10;14.70;;;;;;;-7.15;100.00;103882.38;10025587;29;20143;-70
2024/01/09 07:29:00;;;;;;;15.27;13.90;;;;;;;-7.19;100.00;103894.25;10027944;29;20066;-69
2024/01/09 07:33:56;;;;;;;15.98;14.40;;;;;;;-7.16;100.00;103894.00;10035867;29;20055;-68
2024/01/09 07:38:53;;;;;;;18.13;14.38;;;;;;;-7.10;100.00;103893.50;10048997;29;20040;-70
2024/01/09 07:43:50;;;;;;;16.30;14.70;;;;;;;-7.03;100.00;103897.38;10038089;29;20570;-71
2024/01/09 07:48:47;;;;;;;14.52;13.00;;;;;;;-6.96;100.00;103888.88;10037559;29;20134;-71
2024/01/09 07:53:43;;;;;;;19.73;14.43;;;;;;;-7.06;100.00;103886.97;10050803;29;20043;-69
2024/01/09 07:58:40;;;;;;;15.65;14.25;;;;;;;-7.05;100.00;103890.50;10048072;29;20046;-69
2024/01/09 08:03:36;;;;;;;15.50;14.10;;;;;;;-7.05;100.00;103888.66;10039017;29;20055;-68
2024/01/09 08:08:38;;;;;;;15.10;13.60;;;;;;;-7.03;100.00;103889.41;10034551;29;20135;-72
2024/01/09 08:13:37;;;;;;;15.35;13.82;;;;;;;-6.96;100.00;103891.53;10033870;29;20071;-73
2024/01/09 08:18:34;;;;;;;15.57;14.20;;;;;;;-6.93;100.00;103888.66;10044553;29;20438;-72
2024/01/09 08:23:31;;;;;;;15.75;14.15;;;;;;;-6.87;100.00;103896.13;10043129;29;20047;-72
2024/01/09 08:28:28;;;;;;;15.73;14.10;;;;;;;-6.77;100.00;103897.09;10042383;29;20051;-68
2024/01/09 08:33:24;;;;;;;15.00;13.60;;;;;;;-6.67;100.00;103895.34;10032552;29;20058;-71
2024/01/09 08:38:24;;;;;;;15.70;14.10;;;;;;;-6.61;100.00;103905.50;10040438;29;20134;-68
2024/01/09 08:43:20;;;;;;;16.00;14.50;;;;;;;-6.50;100.00;103895.78;10040680;29;20057;-69
2024/01/09 08:48:17;;;;;;;16.98;14.27;;;;;;;-6.42;100.00;103909.31;10049774;29;20091;-69
2024/01/09 08:53:14;;;;;;;19.10;14.43;;;;;;;-6.24;100.00;103902.47;10031915;29;20051;-68
2024/01/09 08:58:11;;;;;;;16.27;14.65;;;;;;;-6.11;100.00;103902.28;10018642;29;20043;-72
2024/01/09 09:03:07;;;;;;;16.88;15.18;;;;;;;-6.02;100.00;103900.66;10037322;29;20115;-69
2024/01/09 09:08:04;;;;;;;17.48;15.77;;;;;;;-5.88;100.00;103896.81;10033880;29;20111;-72
2024/01/09 09:13:00;;;;;;;15.82;14.27;;;;;;;-5.67;100.00;103899.47;10037351;29;20412;-72
2024/01/09 09:17:57;;;;;;;16.13;14.63;;;;;;;-5.47;100.00;103890.59;10034119;29;20048;-72
2024/01/09 09:22:54;;;;;;;17.48;15.65;;;;;;;-5.31;100.00;103896.28;10032860;29;20047;-72
2024/01/09 09:27:50;;;;;;;15.85;14.40;;;;;;;-5.21;100.00;103900.81;10043855;28;20048;-70
2024/01/09 09:32:47;;;;;;;16.05;14.27;;;;;;;-5.02;100.00;103895.53;10037199;29;20414;-71
2024/01/09 09:37:56;;;;;;;15.63;14.13;;;;;;;-4.85;100.00;103902.03;10036647;29;20044;-70
2024/01/09 09:42:58;;;;;;;18.05;16.38;;;;;;;-4.68;100.00;103895.19;10049681;29;20048;-70
2024/01/09 09:47:55;;;;;;;17.52;15.05;;;;;;;-4.63;100.00;103895.63;10050561;29;20044;-70
2024/01/09 09:52:55;;;;;;;16.30;14.60;;;;;;;-4.15;100.00;103886.78;10041429;29;20571;-70
2024/01/09 09:57:51;;;;;;;16.17;13.93;;;;;;;-3.63;100.00;103889.91;10034954;29;20043;-71
2024/01/09 10:02:49;;;;;;;16.83;13.63;;;;;;;-3.25;100.00;103882.75;10046499;29;20046;-70
2024/01/09 10:07:51;;;;;;;15.63;12.48;;;;;;;-2.81;100.00;103903.50;10040593;29;20423;-71
2024/01/09 10:12:48;;;;;;;11.88;10.63;;;;;;;-2.59;100.00;103888.84;10040446;29;20047;-70
2024/01/09 10:17:45;;;;;;;11.20;9.82;;;;;;;-2.18;100.00;103891.88;10035488;29;20054;-71
2024/01/09 10:22:42;;;;;;;11.85;10.15;;;;;;;-1.94;100.00;103884.03;10044696;29;20044;-70
2024/01/09 10:27:40;;;;;;;12.25;9.18;;;;;;;-1.24;100.00;103875.06;10041296;29;20570;-70
2024/01/09 10:32:38;;;;;;;10.82;8.30;;;;;;;-1.14;100.00;103875.78;10034304;29;20051;-70
2024/01/09 10:37:40;;;;;;;9.30;8.30;;;;;;;-0.96;100.00;103880.19;10041067;29;20112;-70
2024/01/09 10:42:47;;;;;;;9.30;8.40;;;;;;;-1.21;100.00;103877.41;10048550;29;20139;-71
2024/01/09 10:47:44;;;;;;;11.02;8.63;;;;;;;-1.35;100.00;103872.66;10042991;29;20051;-70
2024/01/09 10:52:43;;;;;;;9.65;8.48;;;;;;;-1.30;100.00;103881.06;10036884;29;20147;-71
2024/01/09 10:57:41;;;;;;;9.82;8.65;;;;;;;-1.14;100.00;103869.56;10037021;29;20048;-70
2024/01/09 11:02:38;;;;;;;9.57;8.07;;;;;;;-1.00;100.00;103870.78;10044419;29;20059;-71
2024/01/09 11:07:36;;;;;;;11.80;8.10;;;;;;;-1.19;100.00;103867.34;10037618;29;20385;-72
2024/01/09 11:12:53;;;;;;;9.48;6.80;;;;;;;-1.02;100.00;103859.34;10037622;29;20789;-71
2024/01/09 11:17:55;;;;;;;8.25;7.32;;;;;;;-0.80;100.00;103850.69;10034689;29;20095;-71
2024/01/09 11:22:52;;;;;;;7.93;7.10;;;;;;;0.02;100.00;103845.31;10044962;29;20492;-70
2024/01/09 11:27:51;;;;;;;7.43;6.72;;;;;;;0.02;100.00;103845.31;10034521;29;20039;-72
2024/01/09 11:32:48;;;;;;;9.40;7.65;;;;;;;-0.48;100.00;103822.19;10035803;29;20508;-71
2024/01/09 11:37:50;;;;;;;9.57;8.00;;;;;;;-0.36;100.00;103815.44;10025027;29;20130;-70
2024/01/09 11:42:48;;;;;;;11.02;8.25;;;;;;;-0.17;100.00;103810.72;10042273;29;20047;-69
2024/01/09 11:47:45;;;;;;;8.30;7.50;;;;;;;0.01;100.00;103806.00;10026280;29;20062;-71
2024/01/09 11:52:42;;;;;;;8.70;7.80;;;;;;;0.42;100.00;103805.91;10027839;29;20139;-71
2024/01/09 11:57:41;;;;;;;9.02;7.22;;;;;;;0.77;100.00;103798.34;10029886;29;20058;-70
2024/01/09 12:02:38;;;;;;;9.38;7.45;;;;;;;0.71;100.00;103780.19;10042666;28;20047;-70
2024/01/09 12:07:37;;;;;;;8.45;7.65;;;;;;;0.73;100.00;103778.16;10038029;29;20512;-69
2024/01/09 12:12:34;;;;;;;9.77;7.40;;;;;;;1.20;100.00;103780.69;10039951;29;20047;-71
2024/01/09 12:17:36;;;;;;;8.07;7.28;;;;;;;1.82;100.00;103774.25;10042539;29;20047;-70
2024/01/09 12:22:35;;;;;;;10.40;7.60;;;;;;;1.74;100.00;103771.66;10036268;29;20047;-72
2024/01/09 12:27:32;;;;;;;8.35;7.55;;;;;;;2.58;100.00;103765.97;10028599;29;20040;-72
2024/01/09 12:32:29;;;;;;;10.00;7.35;;;;;;;3.56;100.00;103755.50;10046295;29;20392;-70
2024/01/09 12:37:27;;;;;;;9.23;7.55;;;;;;;3.14;100.00;103754.50;10036489;29;20136;-74
2024/01/09 12:42:23;;;;;;;8.07;7.28;;;;;;;3.79;100.00;103744.44;10036659;29;20051;-71
2024/01/09 12:47:20;;;;;;;7.82;7.13;;;;;;;3.05;100.00;103742.16;10040444;29;20102;-71
2024/01/09 12:52:20;;;;;;;7.95;6.53;;;;;;;3.80;100.00;103741.50;10031465;29;20105;-72
2024/01/09 12:57:16;;;;;;;8.05;7.25;;;;;;;4.46;100.00;103739.38;10033920;29;20043;-72
2024/01/09 13:02:13;;;;;;;8.43;7.47;;;;;;;4.57;100.00;103741.47;10030793;29;20073;-73
2024/01/09 13:07:12;;;;;;;8.68;6.57;;;;;;;3.94;100.00;103737.00;10035330;29;20043;-73
2024/01/09 13:12:09;;;;;;;7.75;6.88;;;;;;;3.48;100.00;103737.56;10034257;29;20503;-72
2024/01/09 13:17:10;;;;;;;8.03;7.33;;;;;;;3.35;100.00;103734.72;10043541;29;20051;-73
2024/01/09 13:22:06;;;;;;;6.88;6.20;;;;;;;2.77;100.00;103742.06;10034435;29;20050;-70
2024/01/09 13:27:06;;;;;;;8.70;6.93;;;;;;;1.97;100.00;103736.47;10050200;28;20068;-71
2024/01/09 13:32:02;;;;;;;10.38;6.90;;;;;;;1.48;100.00;103745.09;10041524;29;20052;-73
2024/01/09 13:36:59;;;;;;;7.07;6.43;;;;;;;1.53;100.00;103752.63;10047483;28;20046;-71
2024/01/09 13:41:57;;;;;;;10.05;6.88;;;;;;;1.76;100.00;103750.72;10038479;29;20048;-72
2024/01/09 13:46:55;;;;;;;7.82;7.03;;;;;;;1.58;100.00;103752.91;10047546;28;20539;-72
2024/01/09 13:51:52;;;;;;;8.00;7.18;;;;;;;1.24;100.00;103746.16;10044673;29;20044;-72
2024/01/09 13:56:51;;;;;;;13.63;9.00;;;;;;;1.01;100.00;103743.44;10049484;29;20044;-72
2024/01/09 14:01:48;;;;;;;14.27;9.57;;;;;;;0.86;100.00;103747.91;10048941;29;20048;-72
2024/01/09 14:06:45;;;;;;;12.35;9.27;;;;;;;0.68;100.00;103748.22;10062497;28;20087;-72
2024/01/09 14:11:42;;;;;;;11.88;10.68;;;;;;;0.41;100.00;103745.81;10051844;29;20044;-71
2024/01/09 14:16:39;;;;;;;12.45;9.77;;;;;;;0.12;100.00;103742.94;10044616;29;20729;-72
2024/01/09 14:21:36;;;;;;;17.45;9.85;;;;;;;-0.17;100.00;103732.75;10042688;29;20043;-72
2024/01/09 14:26:32;;;;;;;14.00;10.63;;;;;;;-0.46;100.00;103744.91;10044130;29;20054;-72
2024/01/09 14:31:29;;;;;;;11.85;9.68;;;;;;;-0.60;100.00;103740.19;10044036;29;20139;-72
2024/01/09 14:36:26;;;;;;;13.77;9.20;;;;;;;-0.75;100.00;103740.88;10049860;29;20051;-72
2024/01/09 14:41:23;;;;;;;12.60;10.55;;;;;;;-0.92;100.00;103741.88;10040951;29;20495;-71
2024/01/09 14:46:19;;;;;;;15.82;10.00;;;;;;;-0.99;100.00;103743.56;10042260;29;20127;-71
2024/01/09 14:51:16;;;;;;;11.88;9.32;;;;;;;-1.07;100.00;103741.66;10042994;29;20043;-72
2024/01/09 14:56:18;;;;;;;14.77;11.00;;;;;;;-1.22;100.00;103738.81;10038969;29;20415;-72
2024/01/09 15:01:15;;;;;;;;;;;;;;;-1.33;100.00;103742.63;10040032;29;20062;-72
2024/01/09 15:06:11;;;;;;;15.50;11.73;;;;;;;-1.46;100.00;103744.09;10031323;29;19923;-68
2024/01/09 15:11:08;;;;;;;16.25;12.13;;;;;;;-1.58;100.00;103744.44;10037431;29;20044;-71
2024/01/09 15:16:05;;;;;;;16.58;11.73;;;;;;;-1.66;100.00;103757.78;10038473;29;20046;-72
2024/01/09 15:21:03;;;;;;;17.23;12.63;;;;;;;-1.79;100.00;103752.03;10034867;29;20055;-72
2024/01/09 15:26:00;;;;;;;18.20;12.20;;;;;;;-1.93;100.00;103750.78;10031169;29;20095;-71
2024/01/09 15:30:57;;;;;;;16.63;12.38;;;;;;;-2.02;100.00;103747.25;10035128;29;20481;-73
2024/01/09 15:35:53;;;;;;;13.90;12.38;;;;;;;-2.16;100.00;103742.44;10035425;29;20078;-73
2024/01/09 15:40:50;;;;;;;15.10;13.13;;;;;;;-2.27;100.00;103748.09;10040139;29;20063;-67
2024/01/09 15:45:47;;;;;;;19.02;12.75;;;;;;;-2.34;100.00;103758.59;10039185;29;20571;-70
2024/01/09 15:50:43;;;;;;;16.85;12.63;;;;;;;-2.45;100.00;103743.59;10042557;29;20518;-71
2024/01/09 15:55:40;;;;;;;20.55;13.88;;;;;;;-2.52;100.00;103745.22;10032734;29;20058;-71
2024/01/09 16:00:36;;;;;;;18.63;13.18;;;;;;;-2.29;100.00;103734.84;10045571;29;20043;-69
2024/01/09 16:05:33;;;;;;;14.27;12.23;;;;;;;-2.27;100.00;103737.38;10027525;28;20444;-70
2024/01/09 16:10:30;;;;;;;14.57;12.57;;;;;;;-2.34;100.00;103732.63;10035597;29;20555;-69
2024/01/09 16:15:29;;;;;;;14.05;12.52;;;;;;;-2.45;100.00;103745.44;10042046;29;20058;-69
2024/01/09 16:20:25;;;;;;;17.15;12.60;;;;;;;-2.55;100.00;103745.56;10036175;29;20048;-70
2024/01/09 16:25:22;;;;;;;14.95;13.27;;;;;;;-2.64;100.00;103746.50;10033824;29;20127;-71
2024/01/09 16:30:18;;;;;;;20.98;14.15;;;;;;;-2.71;100.00;103740.06;10031683;29;20452;-71
2024/01/09 16:35:15;;;;;;;22.67;15.05;;;;;;;-2.80;100.00;103739.16;10020483;29;20047;-69
2024/01/09 16:40:11;;;;;;;18.60;14.70;;;;;;;-2.90;100.00;103744.59;10021732;29;20056;-70
2024/01/09 16:45:09;;;;;;;17.25;15.45;;;;;;;-2.96;100.00;103737.16;10025603;28;20055;-70
2024/01/09 16:50:06;;;;;;;17.23;15.13;;;;;;;-3.05;100.00;103738.91;10034034;29;20122;-70
2024/01/09 16:55:03;;;;;;;21.83;17.05;;;;;;;-3.08;100.00;103743.75;10034362;29;20108;-69
2024/01/09 16:59:59;;;;;;;17.65;15.75;;;;;;;-3.22;100.00;103745.94;10030185;29;20123;-70
2024/01/09 17:04:56;;;;;;;22.15;17.60;;;;;;;-3.29;100.00;103739.53;10036526;28;20120;-69
2024/01/09 17:09:53;;;;;;;21.40;16.85;;;;;;;-3.39;100.00;103747.63;10027272;29;20046;-69
2024/01/09 17:14:50;;;;;;;25.25;18.10;;;;;;;-3.45;100.00;103728.66;10031771;28;20039;-68
2024/01/09 17:19:47;;;;;;;20.00;16.80;;;;;;;-3.55;100.00;103726.03;10040501;29;20392;-69
2024/01/09 17:24:44;;;;;;;22.42;17.13;;;;;;;-3.61;100.00;103722.09;10036187;29;20498;-69
2024/01/09 17:29:40;;;;;;;23.40;18.05;;;;;;;-3.67;100.00;103722.69;10038522;29;20039;-68
2024/01/09 17:34:38;;;;;;;22.38;18.25;;;;;;;-3.78;100.00;103725.59;10026250;29;20523;-70
2024/01/09 17:39:36;;;;;;;19.75;16.95;;;;;;;-3.84;100.00;103723.50;10025647;29;20048;-70
2024/01/09 17:44:32;;;;;;;22.83;17.10;;;;;;;-3.83;100.00;103728.72;10031924;29;20066;-69
2024/01/09 17:49:29;;;;;;;22.02;17.77;;;;;;;-3.85;100.00;103727.19;10027514;28;20087;-69
2024/01/09 17:54:25;;;;;;;27.05;18.00;;;;;;;-3.85;100.00;103730.69;10033624;29;20420;-69
2024/01/09 17:59:22;;;;;;;23.65;17.95;;;;;;;-3.93;100.00;103722.53;10029050;29;20051;-68
2024/01/09 18:04:19;;;;;;;23.60;18.42;;;;;;;-3.91;100.00;103722.41;10036220;29;20047;-69
2024/01/09 18:09:21;;;;;;;22.08;18.50;;;;;;;-3.96;100.00;103714.00;10054539;29;20036;-69
2024/01/09 18:14:18;;;;;;;23.70;18.02;;;;;;;-4.02;100.00;103713.56;10019064;28;20069;-69
2024/01/09 18:19:15;;;;;;;25.15;18.83;;;;;;;-4.09;100.00;103725.84;10033304;29;20462;-66
2024/01/09 18:24:12;;;;;;;29.55;19.63;;;;;;;-4.11;100.00;103719.78;10028044;29;20047;-69
2024/01/09 18:29:09;;;;;;;24.35;18.88;;;;;;;-4.16;100.00;103722.06;10032666;29;20459;-68
2024/01/09 18:34:20;;;;;;;22.23;18.42;;;;;;;-4.20;100.00;103710.00;10020839;29;20048;-68
2024/01/09 18:39:20;;;;;;;23.55;19.25;;;;;;;-4.23;100.00;103720.97;10042675;29;20552;-70
2024/01/09 18:44:18;;;;;;;23.50;20.77;;;;;;;-4.26;100.00;103710.59;10039318;28;20490;-68
2024/01/09 18:49:15;;;;;;;26.95;20.02;;;;;;;-4.32;100.00;103700.47;10038949;29;20055;-70
2024/01/09 18:54:13;;;;;;;28.50;20.05;;;;;;;-4.32;100.00;103701.31;10043132;29;20048;-69
2024/01/09 18:59:10;;;;;;;25.17;20.30;;;;;;;-4.40;100.00;103687.84;10026880;29;20111;-68
2024/01/09 19:04:07;;;;;;;24.60;20.02;;;;;;;-4.45;100.00;103688.28;10037019;29;20047;-69
2024/01/09 19:09:07;;;;;;;26.05;20.40;;;;;;;-4.43;100.00;103677.47;10045521;28;20039;-69
2024/01/09 19:14:09;;;;;;;23.25;19.88;;;;;;;-4.47;100.00;103676.06;10030244;28;20040;-71
2024/01/09 19:19:06;;;;;;;26.42;22.10;;;;;;;-4.53;100.00;103672.13;10031468;29;20044;-71
2024/01/09 19:24:03;;;;;;;26.40;21.92;;;;;;;-4.52;100.00;103671.16;10035772;29;20055;-71
2024/01/09 19:29:00;;;;;;;28.85;22.10;;;;;;;-4.57;100.00;103670.75;10036723;29;20525;-71
2024/01/09 19:33:57;;;;;;;28.50;21.67;;;;;;;-4.58;100.00;103662.88;10033105;29;20043;-72
2024/01/09 19:38:53;;;;;;;27.50;22.20;;;;;;;-4.55;100.00;103666.13;10029974;29;20559;-71
2024/01/09 19:43:50;;;;;;;30.80;22.90;;;;;;;-4.61;100.00;103657.84;10033501;29;20100;-70
2024/01/09 19:48:46;;;;;;;30.40;23.38;;;;;;;-4.62;100.00;103662.31;10032901;29;20055;-71
2024/01/09 19:53:43;;;;;;;29.33;22.55;;;;;;;-4.69;100.00;103655.88;10034833;29;20048;-71
2024/01/09 19:58:40;;;;;;;28.58;23.15;;;;;;;-4.70;100.00;103651.53;10030570;29;20110;-71
2024/01/09 20:03:37;;;;;;;32.80;23.08;;;;;;;-4.71;100.00;103652.50;10027799;29;20054;-71
2024/01/09 20:08:33;;;;;;;31.63;23.63;;;;;;;-4.74;100.00;103658.13;10033643;29;20106;-71
2024/01/09 20:13:30;;;;;;;29.83;22.70;;;;;;;-4.75;100.00;103656.47;10035917;29;20051;-71
2024/01/09 20:18:26;;;;;;;29.48;23.08;;;;;;;-4.91;100.00;103657.88;10048273;28;20082;-71
2024/01/09 20:23:23;;;;;;;29.58;22.90;;;;;;;-4.93;100.00;103665.19;10034372;29;20134;-71
2024/01/09 20:28:19;;;;;;;29.80;21.73;;;;;;;-4.99;100.00;103664.91;10026647;29;20519;-71
2024/01/09 20:33:16;;;;;;;29.98;22.77;;;;;;;-5.01;100.00;103651.72;10043412;29;20051;-69
2024/01/09 20:38:13;;;;;;;29.05;22.55;;;;;;;-5.02;100.00;103655.34;10030389;29;20426;-71
2024/01/09 20:43:09;;;;;;;30.20;21.38;;;;;;;-5.02;100.00;103652.69;10035634;29;20142;-71
2024/01/09 20:48:06;;;;;;;27.58;22.15;;;;;;;-5.09;100.00;103643.56;10032422;29;20050;-71
2024/01/09 20:53:03;;;;;;;29.38;21.80;;;;;;;-5.19;100.00;103642.75;10035204;29;20078;-71
2024/01/09 20:58:00;;;;;;;30.52;22.92;;;;;;;-5.20;100.00;103646.38;10030967;29;20048;-70
2024/01/09 21:02:56;;;;;;;28.40;22.15;;;;;;;-5.23;100.00;103642.16;10032977;29;20496;-72
2024/01/09 21:07:53;;;;;;;32.35;22.58;;;;;;;-5.23;100.00;103638.66;10024586;29;20052;-70
2024/01/09 21:12:49;;;;;;;30.75;22.23;;;;;;;-5.26;100.00;103637.13;10020410;28;20055;-70
2024/01/09 21:17:46;;;;;;;30.23;22.08;;;;;;;-5.26;100.00;103646.97;10025183;29;20040;-72
2024/01/09 21:22:42;;;;;;;32.70;22.98;;;;;;;-5.34;100.00;103651.19;10043334;29;20533;-69
2024/01/09 21:27:39;;;;;;;36.10;22.95;;;;;;;-5.37;100.00;103640.78;10025695;29;20051;-71
2024/01/09 21:32:36;;;;;;;32.78;22.20;;;;;;;-5.35;100.00;103633.47;10038384;29;20062;-70
2024/01/09 21:37:33;;;;;;;35.67;23.13;;;;;;;-5.42;100.00;103631.53;10043204;29;20176;-69
2024/01/09 21:42:30;;;;;;;31.50;22.67;;;;;;;-5.45;100.00;103624.66;10049771;29;20047;-68
2024/01/09 21:47:27;;;;;;;29.00;21.95;;;;;;;-5.45;100.00;103621.97;10042159;29;20048;-69
2024/01/09 21:52:23;;;;;;;30.05;23.17;;;;;;;-5.54;100.00;103617.47;10039238;29;20054;-68
2024/01/09 21:57:20;;;;;;;32.75;23.55;;;;;;;-5.58;100.00;103616.06;10051521;29;20055;-69
2024/01/09 22:02:17;;;;;;;39.03;22.33;;;;;;;-5.62;100.00;103610.16;10036125;29;20047;-68
2024/01/09 22:07:13;;;;;;;28.40;22.63;;;;;;;-5.67;100.00;103606.25;10037746;29;20092;-69
2024/01/09 22:12:10;;;;;;;32.30;23.50;;;;;;;-5.71;100.00;103595.88;10042778;29;20054;-70